sensor_id;sensor_type;location;lat;lon;timestamp;P1;durP1;ratioP1;P2;durP2;ratioP2
75696;SDS011;64312;44.738;20.612;2023-04-25T00:01:03;7.32;;;5.22;;
75696;SDS011;64312;44.738;20.612;2023-04-25T00:03:31;7.40;;;4.82;;
75696;SDS011;64312;44.738;20.612;2023-04-25T00:05:57;6.80;;;5.05;;
75696;SDS011;64312;44.738;20.612;2023-04-25T00:08:27;6.55;;;4.95;;
75696;SDS011;64312;44.738;20.612;2023-04-25T00:10:54;5.82;;;4.35;;
75696;SDS011;64312;44.738;20.612;2023-04-25T00:13:20;6.82;;;4.63;;
75696;SDS011;64312;44.738;20.612;2023-04-25T00:15:46;8.93;;;4.55;;
75696;SDS011;64312;44.738;20.612;2023-04-25T00:18:14;6.78;;;4.43;;
75696;SDS011;64312;44.738;20.612;2023-04-25T00:20:40;6.65;;;4.22;;
75696;SDS011;64312;44.738;20.612;2023-04-25T00:23:09;5.10;;;3.95;;
75696;SDS011;64312;44.738;20.612;2023-04-25T00:25:35;4.82;;;3.65;;
75696;SDS011;64312;44.738;20.612;2023-04-25T00:28:01;6.10;;;3.92;;
75696;SDS011;64312;44.738;20.612;2023-04-25T00:30:26;5.68;;;3.92;;
75696;SDS011;64312;44.738;20.612;2023-04-25T00:32:52;6.10;;;3.60;;
75696;SDS011;64312;44.738;20.612;2023-04-25T00:35:18;6.32;;;3.65;;
75696;SDS011;64312;44.738;20.612;2023-04-25T00:37:44;6.28;;;3.95;;
75696;SDS011;64312;44.738;20.612;2023-04-25T00:40:10;4.47;;;3.88;;
75696;SDS011;64312;44.738;20.612;2023-04-25T00:42:36;4.82;;;3.53;;
75696;SDS011;64312;44.738;20.612;2023-04-25T00:45:04;6.82;;;4.43;;
75696;SDS011;64312;44.738;20.612;2023-04-25T00:47:30;6.57;;;3.22;;
75696;SDS011;64312;44.738;20.612;2023-04-25T00:49:58;4.68;;;3.65;;
75696;SDS011;64312;44.738;20.612;2023-04-25T00:52:23;4.97;;;3.75;;
75696;SDS011;64312;44.738;20.612;2023-04-25T00:54:49;6.13;;;3.08;;
75696;SDS011;64312;44.738;20.612;2023-04-25T00:57:15;5.38;;;3.58;;
75696;SDS011;64312;44.738;20.612;2023-04-25T00:59:41;5.90;;;4.05;;
75696;SDS011;64312;44.738;20.612;2023-04-25T01:02:11;6.45;;;4.00;;
75696;SDS011;64312;44.738;20.612;2023-04-25T01:04:37;5.22;;;3.85;;
75696;SDS011;64312;44.738;20.612;2023-04-25T01:07:04;7.18;;;3.78;;
75696;SDS011;64312;44.738;20.612;2023-04-25T01:09:30;4.95;;;3.72;;
75696;SDS011;64312;44.738;20.612;2023-04-25T01:11:57;7.60;;;4.05;;
75696;SDS011;64312;44.738;20.612;2023-04-25T01:14:23;4.70;;;3.40;;
75696;SDS011;64312;44.738;20.612;2023-04-25T01:16:49;4.90;;;3.05;;
75696;SDS011;64312;44.738;20.612;2023-04-25T01:19:16;8.75;;;4.00;;
75696;SDS011;64312;44.738;20.612;2023-04-25T01:21:45;7.93;;;4.45;;
75696;SDS011;64312;44.738;20.612;2023-04-25T01:24:11;5.78;;;3.70;;
75696;SDS011;64312;44.738;20.612;2023-04-25T01:26:37;5.60;;;3.80;;
75696;SDS011;64312;44.738;20.612;2023-04-25T01:29:06;5.10;;;3.05;;
75696;SDS011;64312;44.738;20.612;2023-04-25T01:31:34;4.82;;;3.60;;
75696;SDS011;64312;44.738;20.612;2023-04-25T01:34:00;7.60;;;3.40;;
75696;SDS011;64312;44.738;20.612;2023-04-25T01:36:28;5.43;;;2.92;;
75696;SDS011;64312;44.738;20.612;2023-04-25T01:38:53;5.35;;;3.58;;
75696;SDS011;64312;44.738;20.612;2023-04-25T01:41:21;6.05;;;3.58;;
75696;SDS011;64312;44.738;20.612;2023-04-25T01:43:48;4.28;;;3.28;;
75696;SDS011;64312;44.738;20.612;2023-04-25T01:46:14;4.45;;;3.20;;
75696;SDS011;64312;44.738;20.612;2023-04-25T01:48:40;4.95;;;3.42;;
75696;SDS011;64312;44.738;20.612;2023-04-25T01:51:06;6.70;;;3.70;;
75696;SDS011;64312;44.738;20.612;2023-04-25T01:53:32;6.47;;;3.90;;
75696;SDS011;64312;44.738;20.612;2023-04-25T01:55:59;7.65;;;4.55;;
75696;SDS011;64312;44.738;20.612;2023-04-25T01:58:28;6.03;;;3.90;;
75696;SDS011;64312;44.738;20.612;2023-04-25T02:01:10;6.93;;;4.13;;
75696;SDS011;64312;44.738;20.612;2023-04-25T02:03:42;8.15;;;4.68;;
75696;SDS011;64312;44.738;20.612;2023-04-25T02:06:19;6.07;;;4.30;;
75696;SDS011;64312;44.738;20.612;2023-04-25T02:08:46;7.20;;;3.80;;
75696;SDS011;64312;44.738;20.612;2023-04-25T02:11:13;8.40;;;4.85;;
75696;SDS011;64312;44.738;20.612;2023-04-25T02:13:45;6.07;;;4.10;;
75696;SDS011;64312;44.738;20.612;2023-04-25T02:16:22;7.57;;;4.00;;
75696;SDS011;64312;44.738;20.612;2023-04-25T02:18:48;7.63;;;4.28;;
75696;SDS011;64312;44.738;20.612;2023-04-25T02:21:14;8.32;;;4.68;;
75696;SDS011;64312;44.738;20.612;2023-04-25T02:23:42;7.10;;;5.20;;
75696;SDS011;64312;44.738;20.612;2023-04-25T02:26:07;5.95;;;3.80;;
75696;SDS011;64312;44.738;20.612;2023-04-25T02:28:34;7.65;;;4.25;;
75696;SDS011;64312;44.738;20.612;2023-04-25T02:31:03;7.93;;;4.82;;
75696;SDS011;64312;44.738;20.612;2023-04-25T02:33:29;11.68;;;5.68;;
75696;SDS011;64312;44.738;20.612;2023-04-25T02:35:56;7.43;;;4.80;;
75696;SDS011;64312;44.738;20.612;2023-04-25T02:38:22;6.97;;;4.78;;
75696;SDS011;64312;44.738;20.612;2023-04-25T02:40:48;7.85;;;5.20;;
75696;SDS011;64312;44.738;20.612;2023-04-25T02:43:13;11.80;;;6.38;;
75696;SDS011;64312;44.738;20.612;2023-04-25T02:45:39;10.52;;;5.63;;
75696;SDS011;64312;44.738;20.612;2023-04-25T02:48:04;8.60;;;5.45;;
75696;SDS011;64312;44.738;20.612;2023-04-25T02:50:31;12.13;;;6.28;;
75696;SDS011;64312;44.738;20.612;2023-04-25T02:52:57;11.23;;;6.65;;
75696;SDS011;64312;44.738;20.612;2023-04-25T02:55:27;8.73;;;5.75;;
75696;SDS011;64312;44.738;20.612;2023-04-25T02:57:53;9.85;;;5.93;;
75696;SDS011;64312;44.738;20.612;2023-04-25T03:00:32;13.55;;;7.47;;
75696;SDS011;64312;44.738;20.612;2023-04-25T03:02:58;9.10;;;6.43;;
75696;SDS011;64312;44.738;20.612;2023-04-25T03:05:24;9.25;;;5.45;;
75696;SDS011;64312;44.738;20.612;2023-04-25T03:07:50;10.15;;;6.13;;
75696;SDS011;64312;44.738;20.612;2023-04-25T03:10:15;10.63;;;6.53;;
75696;SDS011;64312;44.738;20.612;2023-04-25T03:12:41;9.93;;;5.53;;
75696;SDS011;64312;44.738;20.612;2023-04-25T03:15:07;10.30;;;5.65;;
75696;SDS011;64312;44.738;20.612;2023-04-25T03:17:33;8.32;;;4.97;;
75696;SDS011;64312;44.738;20.612;2023-04-25T03:19:59;9.63;;;4.78;;
75696;SDS011;64312;44.738;20.612;2023-04-25T03:22:24;7.38;;;4.50;;
75696;SDS011;64312;44.738;20.612;2023-04-25T03:24:50;6.43;;;4.45;;
75696;SDS011;64312;44.738;20.612;2023-04-25T03:27:16;7.72;;;4.35;;
75696;SDS011;64312;44.738;20.612;2023-04-25T03:29:42;6.65;;;4.47;;
75696;SDS011;64312;44.738;20.612;2023-04-25T03:32:09;9.15;;;3.95;;
75696;SDS011;64312;44.738;20.612;2023-04-25T03:34:34;6.95;;;4.50;;
75696;SDS011;64312;44.738;20.612;2023-04-25T03:37:01;5.65;;;3.35;;
75696;SDS011;64312;44.738;20.612;2023-04-25T03:39:28;4.95;;;2.95;;
75696;SDS011;64312;44.738;20.612;2023-04-25T03:41:55;6.10;;;3.58;;
75696;SDS011;64312;44.738;20.612;2023-04-25T03:44:20;9.02;;;3.42;;
75696;SDS011;64312;44.738;20.612;2023-04-25T03:46:46;4.97;;;3.50;;
75696;SDS011;64312;44.738;20.612;2023-04-25T03:49:12;6.47;;;3.63;;
75696;SDS011;64312;44.738;20.612;2023-04-25T03:52:00;4.45;;;3.35;;
75696;SDS011;64312;44.738;20.612;2023-04-25T03:54:32;4.50;;;2.90;;
75696;SDS011;64312;44.738;20.612;2023-04-25T03:57:10;6.15;;;3.67;;
75696;SDS011;64312;44.738;20.612;2023-04-25T03:59:38;6.00;;;3.92;;
75696;SDS011;64312;44.738;20.612;2023-04-25T04:02:04;6.55;;;3.47;;
75696;SDS011;64312;44.738;20.612;2023-04-25T04:04:32;6.03;;;3.50;;
75696;SDS011;64312;44.738;20.612;2023-04-25T04:06:59;6.18;;;3.25;;
75696;SDS011;64312;44.738;20.612;2023-04-25T04:09:27;6.80;;;4.97;;
75696;SDS011;64312;44.738;20.612;2023-04-25T04:11:54;6.03;;;3.35;;
75696;SDS011;64312;44.738;20.612;2023-04-25T04:14:20;6.07;;;3.92;;
75696;SDS011;64312;44.738;20.612;2023-04-25T04:16:47;15.18;;;8.48;;
75696;SDS011;64312;44.738;20.612;2023-04-25T04:19:14;15.25;;;7.40;;
75696;SDS011;64312;44.738;20.612;2023-04-25T04:21:44;37.78;;;16.40;;
75696;SDS011;64312;44.738;20.612;2023-04-25T04:24:10;25.90;;;12.50;;
75696;SDS011;64312;44.738;20.612;2023-04-25T04:26:47;11.88;;;7.13;;
75696;SDS011;64312;44.738;20.612;2023-04-25T04:29:33;15.80;;;7.95;;
75696;SDS011;64312;44.738;20.612;2023-04-25T04:32:28;10.57;;;6.82;;
75696;SDS011;64312;44.738;20.612;2023-04-25T04:34:56;20.70;;;10.82;;
75696;SDS011;64312;44.738;20.612;2023-04-25T04:37:23;15.52;;;9.45;;
75696;SDS011;64312;44.738;20.612;2023-04-25T04:39:50;17.65;;;9.07;;
75696;SDS011;64312;44.738;20.612;2023-04-25T04:42:33;21.45;;;11.35;;
75696;SDS011;64312;44.738;20.612;2023-04-25T04:45:16;38.33;;;17.88;;
75696;SDS011;64312;44.738;20.612;2023-04-25T04:48:05;45.72;;;20.92;;
75696;SDS011;64312;44.738;20.612;2023-04-25T04:50:44;50.63;;;20.95;;
75696;SDS011;64312;44.738;20.612;2023-04-25T04:53:44;54.03;;;23.33;;
75696;SDS011;64312;44.738;20.612;2023-04-25T04:56:29;83.75;;;33.00;;
75696;SDS011;64312;44.738;20.612;2023-04-25T04:59:18;38.08;;;18.67;;
75696;SDS011;64312;44.738;20.612;2023-04-25T05:02:03;34.08;;;14.20;;
75696;SDS011;64312;44.738;20.612;2023-04-25T05:04:48;33.70;;;15.82;;
75696;SDS011;64312;44.738;20.612;2023-04-25T05:07:29;32.55;;;14.63;;
75696;SDS011;64312;44.738;20.612;2023-04-25T05:10:18;21.08;;;10.38;;
75696;SDS011;64312;44.738;20.612;2023-04-25T05:13:19;25.98;;;12.32;;
75696;SDS011;64312;44.738;20.612;2023-04-25T05:16:12;16.02;;;8.90;;
75696;SDS011;64312;44.738;20.612;2023-04-25T05:19:13;29.23;;;13.85;;
75696;SDS011;64312;44.738;20.612;2023-04-25T05:21:57;27.52;;;11.88;;
75696;SDS011;64312;44.738;20.612;2023-04-25T05:24:38;20.25;;;10.40;;
75696;SDS011;64312;44.738;20.612;2023-04-25T05:27:17;13.70;;;8.10;;
75696;SDS011;64312;44.738;20.612;2023-04-25T05:30:02;12.98;;;7.45;;
75696;SDS011;64312;44.738;20.612;2023-04-25T05:32:46;11.30;;;6.80;;
75696;SDS011;64312;44.738;20.612;2023-04-25T05:35:12;14.40;;;6.43;;
75696;SDS011;64312;44.738;20.612;2023-04-25T05:37:43;8.30;;;5.63;;
75696;SDS011;64312;44.738;20.612;2023-04-25T05:40:11;8.85;;;5.85;;
75696;SDS011;64312;44.738;20.612;2023-04-25T05:42:43;10.25;;;5.85;;
75696;SDS011;64312;44.738;20.612;2023-04-25T05:45:27;7.15;;;4.40;;
75696;SDS011;64312;44.738;20.612;2023-04-25T05:48:10;7.78;;;4.88;;
75696;SDS011;64312;44.738;20.612;2023-04-25T05:50:42;9.35;;;5.65;;
75696;SDS011;64312;44.738;20.612;2023-04-25T05:53:34;11.43;;;7.22;;
75696;SDS011;64312;44.738;20.612;2023-04-25T05:56:01;12.38;;;6.93;;
75696;SDS011;64312;44.738;20.612;2023-04-25T05:58:27;11.27;;;7.32;;
75696;SDS011;64312;44.738;20.612;2023-04-25T06:00:55;17.20;;;8.25;;
75696;SDS011;64312;44.738;20.612;2023-04-25T06:03:21;12.48;;;7.53;;
75696;SDS011;64312;44.738;20.612;2023-04-25T06:05:48;18.70;;;10.52;;
75696;SDS011;64312;44.738;20.612;2023-04-25T06:08:14;11.20;;;7.50;;
75696;SDS011;64312;44.738;20.612;2023-04-25T06:10:40;12.25;;;6.32;;
75696;SDS011;64312;44.738;20.612;2023-04-25T06:13:05;12.70;;;7.35;;
75696;SDS011;64312;44.738;20.612;2023-04-25T06:15:33;14.10;;;7.88;;
75696;SDS011;64312;44.738;20.612;2023-04-25T06:18:00;11.02;;;7.63;;
75696;SDS011;64312;44.738;20.612;2023-04-25T06:20:26;12.10;;;8.02;;
75696;SDS011;64312;44.738;20.612;2023-04-25T06:22:54;14.82;;;8.27;;
75696;SDS011;64312;44.738;20.612;2023-04-25T06:25:27;15.30;;;10.55;;
75696;SDS011;64312;44.738;20.612;2023-04-25T06:27:54;18.90;;;10.80;;
75696;SDS011;64312;44.738;20.612;2023-04-25T06:30:20;22.42;;;11.48;;
75696;SDS011;64312;44.738;20.612;2023-04-25T06:32:52;14.63;;;9.02;;
75696;SDS011;64312;44.738;20.612;2023-04-25T06:35:18;21.20;;;11.20;;
75696;SDS011;64312;44.738;20.612;2023-04-25T06:37:45;17.60;;;10.88;;
75696;SDS011;64312;44.738;20.612;2023-04-25T06:40:10;23.50;;;14.00;;
75696;SDS011;64312;44.738;20.612;2023-04-25T06:42:36;16.55;;;10.32;;
75696;SDS011;64312;44.738;20.612;2023-04-25T06:45:22;16.65;;;11.32;;
75696;SDS011;64312;44.738;20.612;2023-04-25T06:47:47;24.83;;;14.55;;
75696;SDS011;64312;44.738;20.612;2023-04-25T06:50:13;18.40;;;11.90;;
75696;SDS011;64312;44.738;20.612;2023-04-25T06:52:39;22.17;;;13.40;;
75696;SDS011;64312;44.738;20.612;2023-04-25T06:55:05;27.33;;;16.23;;
75696;SDS011;64312;44.738;20.612;2023-04-25T07:03:02;13.65;;;8.15;;
75696;SDS011;64312;44.738;20.612;2023-04-25T07:05:27;15.07;;;9.15;;
75696;SDS011;64312;44.738;20.612;2023-04-25T07:07:53;15.63;;;8.80;;
75696;SDS011;64312;44.738;20.612;2023-04-25T07:10:19;16.00;;;8.80;;
75696;SDS011;64312;44.738;20.612;2023-04-25T07:12:46;11.18;;;7.75;;
75696;SDS011;64312;44.738;20.612;2023-04-25T07:15:12;13.13;;;8.55;;
75696;SDS011;64312;44.738;20.612;2023-04-25T07:17:42;12.68;;;8.40;;
75696;SDS011;64312;44.738;20.612;2023-04-25T07:20:08;14.45;;;7.90;;
75696;SDS011;64312;44.738;20.612;2023-04-25T07:22:34;10.32;;;6.50;;
75696;SDS011;64312;44.738;20.612;2023-04-25T07:25:01;10.98;;;7.05;;
75696;SDS011;64312;44.738;20.612;2023-04-25T07:27:28;10.40;;;7.22;;
75696;SDS011;64312;44.738;20.612;2023-04-25T07:29:59;12.05;;;7.38;;
75696;SDS011;64312;44.738;20.612;2023-04-25T07:32:25;13.52;;;9.18;;
75696;SDS011;64312;44.738;20.612;2023-04-25T07:34:51;12.70;;;8.00;;
75696;SDS011;64312;44.738;20.612;2023-04-25T07:37:17;14.38;;;8.65;;
75696;SDS011;64312;44.738;20.612;2023-04-25T07:39:57;11.70;;;7.65;;
75696;SDS011;64312;44.738;20.612;2023-04-25T07:42:23;12.50;;;8.57;;
75696;SDS011;64312;44.738;20.612;2023-04-25T07:44:48;12.02;;;7.00;;
75696;SDS011;64312;44.738;20.612;2023-04-25T07:47:14;10.18;;;7.32;;
75696;SDS011;64312;44.738;20.612;2023-04-25T07:49:41;11.68;;;8.15;;
75696;SDS011;64312;44.738;20.612;2023-04-25T07:52:06;14.57;;;9.30;;
75696;SDS011;64312;44.738;20.612;2023-04-25T07:54:34;8.85;;;6.13;;
75696;SDS011;64312;44.738;20.612;2023-04-25T07:57:06;9.50;;;6.82;;
75696;SDS011;64312;44.738;20.612;2023-04-25T07:59:33;13.95;;;9.88;;
75696;SDS011;64312;44.738;20.612;2023-04-25T08:02:00;11.95;;;7.63;;
75696;SDS011;64312;44.738;20.612;2023-04-25T08:04:26;12.85;;;7.13;;
75696;SDS011;64312;44.738;20.612;2023-04-25T08:06:56;15.32;;;9.07;;
75696;SDS011;64312;44.738;20.612;2023-04-25T08:09:25;8.75;;;5.97;;
75696;SDS011;64312;44.738;20.612;2023-04-25T08:11:52;11.77;;;8.10;;
75696;SDS011;64312;44.738;20.612;2023-04-25T08:14:24;12.10;;;8.15;;
75696;SDS011;64312;44.738;20.612;2023-04-25T08:16:50;10.23;;;7.03;;
75696;SDS011;64312;44.738;20.612;2023-04-25T08:19:17;16.92;;;10.13;;
75696;SDS011;64312;44.738;20.612;2023-04-25T08:21:44;8.40;;;6.18;;
75696;SDS011;64312;44.738;20.612;2023-04-25T08:24:14;10.20;;;7.38;;
75696;SDS011;64312;44.738;20.612;2023-04-25T08:26:40;16.40;;;9.07;;
75696;SDS011;64312;44.738;20.612;2023-04-25T08:29:07;14.48;;;8.70;;
75696;SDS011;64312;44.738;20.612;2023-04-25T08:31:37;11.82;;;7.45;;
75696;SDS011;64312;44.738;20.612;2023-04-25T08:34:03;8.88;;;5.25;;
75696;SDS011;64312;44.738;20.612;2023-04-25T08:36:33;9.85;;;5.70;;
75696;SDS011;64312;44.738;20.612;2023-04-25T08:38:59;7.82;;;5.45;;
75696;SDS011;64312;44.738;20.612;2023-04-25T08:41:25;12.40;;;6.25;;
75696;SDS011;64312;44.738;20.612;2023-04-25T08:43:52;9.65;;;4.78;;
75696;SDS011;64312;44.738;20.612;2023-04-25T08:46:19;10.80;;;6.85;;
75696;SDS011;64312;44.738;20.612;2023-04-25T08:49:05;6.50;;;4.72;;
75696;SDS011;64312;44.738;20.612;2023-04-25T08:51:32;6.97;;;4.90;;
75696;SDS011;64312;44.738;20.612;2023-04-25T08:54:08;5.15;;;4.20;;
75696;SDS011;64312;44.738;20.612;2023-04-25T08:56:37;6.15;;;4.32;;
75696;SDS011;64312;44.738;20.612;2023-04-25T08:59:04;5.15;;;4.00;;
75696;SDS011;64312;44.738;20.612;2023-04-25T09:01:30;7.35;;;4.15;;
75696;SDS011;64312;44.738;20.612;2023-04-25T09:03:57;7.68;;;4.35;;
75696;SDS011;64312;44.738;20.612;2023-04-25T09:06:23;4.88;;;3.70;;
75696;SDS011;64312;44.738;20.612;2023-04-25T09:08:49;6.47;;;4.32;;
75696;SDS011;64312;44.738;20.612;2023-04-25T09:11:17;6.00;;;4.45;;
75696;SDS011;64312;44.738;20.612;2023-04-25T09:13:43;6.25;;;3.72;;
75696;SDS011;64312;44.738;20.612;2023-04-25T09:16:21;4.95;;;4.00;;
75696;SDS011;64312;44.738;20.612;2023-04-25T09:19:23;4.55;;;3.33;;
75696;SDS011;64312;44.738;20.612;2023-04-25T09:21:59;5.30;;;4.40;;
75696;SDS011;64312;44.738;20.612;2023-04-25T09:26:59;5.32;;;3.90;;
75696;SDS011;64312;44.738;20.612;2023-04-25T09:29:30;5.95;;;3.90;;
75696;SDS011;64312;44.738;20.612;2023-04-25T09:32:18;5.68;;;2.90;;
75696;SDS011;64312;44.738;20.612;2023-04-25T09:34:48;4.25;;;2.80;;
75696;SDS011;64312;44.738;20.612;2023-04-25T09:37:21;7.80;;;3.20;;
75696;SDS011;64312;44.738;20.612;2023-04-25T09:40:06;3.10;;;2.33;;
75696;SDS011;64312;44.738;20.612;2023-04-25T09:42:44;3.58;;;2.50;;
75696;SDS011;64312;44.738;20.612;2023-04-25T09:45:12;5.65;;;2.45;;
75696;SDS011;64312;44.738;20.612;2023-04-25T09:47:39;4.88;;;2.80;;
75696;SDS011;64312;44.738;20.612;2023-04-25T09:50:13;5.97;;;4.07;;
75696;SDS011;64312;44.738;20.612;2023-04-25T09:52:44;4.30;;;3.05;;
75696;SDS011;64312;44.738;20.612;2023-04-25T09:55:15;5.88;;;3.50;;
75696;SDS011;64312;44.738;20.612;2023-04-25T09:57:43;5.43;;;3.58;;
75696;SDS011;64312;44.738;20.612;2023-04-25T10:00:13;5.03;;;3.55;;
75696;SDS011;64312;44.738;20.612;2023-04-25T10:02:40;4.95;;;3.30;;
75696;SDS011;64312;44.738;20.612;2023-04-25T10:05:11;4.75;;;3.63;;
75696;SDS011;64312;44.738;20.612;2023-04-25T10:07:39;7.32;;;5.05;;
75696;SDS011;64312;44.738;20.612;2023-04-25T10:10:13;10.05;;;6.13;;
75696;SDS011;64312;44.738;20.612;2023-04-25T10:12:39;7.13;;;5.32;;
75696;SDS011;64312;44.738;20.612;2023-04-25T10:15:06;15.68;;;10.73;;
75696;SDS011;64312;44.738;20.612;2023-04-25T10:17:34;8.85;;;5.70;;
75696;SDS011;64312;44.738;20.612;2023-04-25T10:20:01;4.80;;;2.92;;
75696;SDS011;64312;44.738;20.612;2023-04-25T10:25:03;6.53;;;5.47;;
75696;SDS011;64312;44.738;20.612;2023-04-25T10:27:30;4.47;;;3.40;;
75696;SDS011;64312;44.738;20.612;2023-04-25T10:30:10;4.65;;;3.10;;
75696;SDS011;64312;44.738;20.612;2023-04-25T10:32:43;4.35;;;2.85;;
75696;SDS011;64312;44.738;20.612;2023-04-25T10:40:22;5.07;;;3.70;;
75696;SDS011;64312;44.738;20.612;2023-04-25T10:42:48;3.83;;;2.55;;
75696;SDS011;64312;44.738;20.612;2023-04-25T10:45:14;7.20;;;4.72;;
75696;SDS011;64312;44.738;20.612;2023-04-25T10:47:43;5.55;;;3.75;;
75696;SDS011;64312;44.738;20.612;2023-04-25T10:50:14;10.32;;;5.68;;
75696;SDS011;64312;44.738;20.612;2023-04-25T10:52:41;10.07;;;5.25;;
75696;SDS011;64312;44.738;20.612;2023-04-25T10:55:07;7.40;;;4.32;;
75696;SDS011;64312;44.738;20.612;2023-04-25T11:02:40;3.60;;;2.67;;
75696;SDS011;64312;44.738;20.612;2023-04-25T11:07:53;6.00;;;3.47;;
75696;SDS011;64312;44.738;20.612;2023-04-25T11:10:24;3.15;;;2.55;;
75696;SDS011;64312;44.738;20.612;2023-04-25T11:12:51;4.03;;;2.60;;
75696;SDS011;64312;44.738;20.612;2023-04-25T11:15:16;3.85;;;2.67;;
75696;SDS011;64312;44.738;20.612;2023-04-25T11:17:42;7.40;;;2.95;;
75696;SDS011;64312;44.738;20.612;2023-04-25T11:20:09;12.10;;;6.63;;
75696;SDS011;64312;44.738;20.612;2023-04-25T11:22:40;9.15;;;5.20;;
75696;SDS011;64312;44.738;20.612;2023-04-25T11:25:09;3.17;;;1.80;;
75696;SDS011;64312;44.738;20.612;2023-04-25T11:27:52;2.72;;;2.13;;
75696;SDS011;64312;44.738;20.612;2023-04-25T11:30:19;5.18;;;3.38;;
75696;SDS011;64312;44.738;20.612;2023-04-25T11:32:46;4.60;;;3.15;;
75696;SDS011;64312;44.738;20.612;2023-04-25T11:35:13;3.85;;;1.80;;
75696;SDS011;64312;44.738;20.612;2023-04-25T11:37:39;4.00;;;2.83;;
75696;SDS011;64312;44.738;20.612;2023-04-25T11:40:06;3.28;;;2.90;;
75696;SDS011;64312;44.738;20.612;2023-04-25T11:42:33;3.88;;;2.30;;
75696;SDS011;64312;44.738;20.612;2023-04-25T11:45:00;4.00;;;2.50;;
75696;SDS011;64312;44.738;20.612;2023-04-25T11:47:31;5.25;;;3.10;;
75696;SDS011;64312;44.738;20.612;2023-04-25T11:49:59;3.88;;;3.25;;
75696;SDS011;64312;44.738;20.612;2023-04-25T11:52:34;3.83;;;2.15;;
75696;SDS011;64312;44.738;20.612;2023-04-25T11:55:14;4.10;;;2.28;;
75696;SDS011;64312;44.738;20.612;2023-04-25T11:57:42;4.28;;;2.05;;
75696;SDS011;64312;44.738;20.612;2023-04-25T12:00:10;5.90;;;2.28;;
75696;SDS011;64312;44.738;20.612;2023-04-25T12:02:42;3.25;;;2.00;;
75696;SDS011;64312;44.738;20.612;2023-04-25T12:05:14;2.35;;;2.00;;
75696;SDS011;64312;44.738;20.612;2023-04-25T12:07:43;4.35;;;2.10;;
75696;SDS011;64312;44.738;20.612;2023-04-25T12:10:13;3.30;;;1.98;;
75696;SDS011;64312;44.738;20.612;2023-04-25T12:12:44;2.80;;;1.80;;
75696;SDS011;64312;44.738;20.612;2023-04-25T12:15:45;3.28;;;2.00;;
75696;SDS011;64312;44.738;20.612;2023-04-25T12:18:06;3.63;;;3.13;;
75696;SDS011;64312;44.738;20.612;2023-04-25T12:20:31;3.25;;;2.10;;
75696;SDS011;64312;44.738;20.612;2023-04-25T12:22:57;4.10;;;2.60;;
75696;SDS011;64312;44.738;20.612;2023-04-25T12:28:16;3.53;;;2.38;;
75696;SDS011;64312;44.738;20.612;2023-04-25T12:30:58;3.13;;;2.10;;
75696;SDS011;64312;44.738;20.612;2023-04-25T12:33:27;3.10;;;2.13;;
75696;SDS011;64312;44.738;20.612;2023-04-25T12:35:54;2.75;;;2.30;;
75696;SDS011;64312;44.738;20.612;2023-04-25T12:38:30;5.53;;;2.85;;
75696;SDS011;64312;44.738;20.612;2023-04-25T12:40:57;4.40;;;2.67;;
75696;SDS011;64312;44.738;20.612;2023-04-25T12:43:23;3.83;;;2.15;;
75696;SDS011;64312;44.738;20.612;2023-04-25T12:45:49;2.97;;;2.03;;
75696;SDS011;64312;44.738;20.612;2023-04-25T12:48:17;2.45;;;1.55;;
75696;SDS011;64312;44.738;20.612;2023-04-25T12:50:43;5.43;;;3.65;;
75696;SDS011;64312;44.738;20.612;2023-04-25T12:53:09;3.92;;;3.05;;
75696;SDS011;64312;44.738;20.612;2023-04-25T12:55:37;3.50;;;2.10;;
75696;SDS011;64312;44.738;20.612;2023-04-25T12:58:02;3.95;;;2.10;;
75696;SDS011;64312;44.738;20.612;2023-04-25T13:00:29;2.95;;;1.30;;
75696;SDS011;64312;44.738;20.612;2023-04-25T13:02:55;2.03;;;1.65;;
75696;SDS011;64312;44.738;20.612;2023-04-25T13:05:21;2.03;;;1.58;;
75696;SDS011;64312;44.738;20.612;2023-04-25T13:07:46;5.80;;;3.17;;
75696;SDS011;64312;44.738;20.612;2023-04-25T13:10:12;3.95;;;1.67;;
75696;SDS011;64312;44.738;20.612;2023-04-25T13:12:38;2.80;;;1.70;;
75696;SDS011;64312;44.738;20.612;2023-04-25T13:15:04;6.20;;;2.13;;
75696;SDS011;64312;44.738;20.612;2023-04-25T13:17:30;2.60;;;1.55;;
75696;SDS011;64312;44.738;20.612;2023-04-25T13:19:56;3.30;;;1.83;;
75696;SDS011;64312;44.738;20.612;2023-04-25T13:22:21;5.47;;;2.03;;
75696;SDS011;64312;44.738;20.612;2023-04-25T13:24:47;3.85;;;1.65;;
75696;SDS011;64312;44.738;20.612;2023-04-25T13:27:13;2.97;;;1.70;;
75696;SDS011;64312;44.738;20.612;2023-04-25T13:29:39;3.75;;;1.80;;
75696;SDS011;64312;44.738;20.612;2023-04-25T13:32:05;2.63;;;1.85;;
75696;SDS011;64312;44.738;20.612;2023-04-25T13:34:32;4.18;;;2.50;;
75696;SDS011;64312;44.738;20.612;2023-04-25T13:36:57;2.30;;;1.70;;
75696;SDS011;64312;44.738;20.612;2023-04-25T13:39:24;1.65;;;1.42;;
75696;SDS011;64312;44.738;20.612;2023-04-25T13:41:50;2.08;;;1.40;;
75696;SDS011;64312;44.738;20.612;2023-04-25T13:44:15;2.22;;;1.80;;
75696;SDS011;64312;44.738;20.612;2023-04-25T13:46:41;3.88;;;1.52;;
75696;SDS011;64312;44.738;20.612;2023-04-25T13:49:07;2.78;;;1.95;;
75696;SDS011;64312;44.738;20.612;2023-04-25T13:51:33;2.25;;;1.88;;
75696;SDS011;64312;44.738;20.612;2023-04-25T13:53:58;2.33;;;2.08;;
75696;SDS011;64312;44.738;20.612;2023-04-25T13:56:24;3.60;;;1.77;;
75696;SDS011;64312;44.738;20.612;2023-04-25T13:58:50;2.85;;;1.90;;
75696;SDS011;64312;44.738;20.612;2023-04-25T14:01:16;1.58;;;1.45;;
75696;SDS011;64312;44.738;20.612;2023-04-25T14:03:42;2.00;;;1.48;;
75696;SDS011;64312;44.738;20.612;2023-04-25T14:06:08;4.18;;;1.67;;
75696;SDS011;64312;44.738;20.612;2023-04-25T14:08:34;4.72;;;2.35;;
75696;SDS011;64312;44.738;20.612;2023-04-25T14:11:00;2.33;;;1.80;;
75696;SDS011;64312;44.738;20.612;2023-04-25T14:13:26;2.95;;;2.20;;
75696;SDS011;64312;44.738;20.612;2023-04-25T14:15:51;5.55;;;2.88;;
75696;SDS011;64312;44.738;20.612;2023-04-25T14:18:18;6.70;;;4.03;;
75696;SDS011;64312;44.738;20.612;2023-04-25T14:20:44;4.55;;;2.03;;
75696;SDS011;64312;44.738;20.612;2023-04-25T14:23:10;3.70;;;2.55;;
75696;SDS011;64312;44.738;20.612;2023-04-25T14:25:36;5.93;;;2.60;;
75696;SDS011;64312;44.738;20.612;2023-04-25T14:28:02;5.47;;;3.42;;
75696;SDS011;64312;44.738;20.612;2023-04-25T14:30:27;3.63;;;2.38;;
75696;SDS011;64312;44.738;20.612;2023-04-25T14:32:53;3.92;;;2.97;;
75696;SDS011;64312;44.738;20.612;2023-04-25T14:35:19;5.32;;;3.20;;
75696;SDS011;64312;44.738;20.612;2023-04-25T14:37:45;6.45;;;3.83;;
75696;SDS011;64312;44.738;20.612;2023-04-25T14:40:11;5.30;;;3.28;;
75696;SDS011;64312;44.738;20.612;2023-04-25T14:42:39;3.58;;;2.22;;
75696;SDS011;64312;44.738;20.612;2023-04-25T14:45:05;2.10;;;1.55;;
75696;SDS011;64312;44.738;20.612;2023-04-25T14:47:35;2.67;;;1.60;;
75696;SDS011;64312;44.738;20.612;2023-04-25T14:50:01;2.78;;;1.80;;
75696;SDS011;64312;44.738;20.612;2023-04-25T14:52:27;2.83;;;1.80;;
75696;SDS011;64312;44.738;20.612;2023-04-25T14:54:53;2.60;;;1.83;;
75696;SDS011;64312;44.738;20.612;2023-04-25T14:57:18;2.50;;;1.88;;
75696;SDS011;64312;44.738;20.612;2023-04-25T14:59:44;1.98;;;1.70;;
75696;SDS011;64312;44.738;20.612;2023-04-25T15:02:10;3.55;;;2.05;;
75696;SDS011;64312;44.738;20.612;2023-04-25T15:04:36;2.85;;;1.83;;
75696;SDS011;64312;44.738;20.612;2023-04-25T15:07:02;3.38;;;2.15;;